sensor_id;sensor_type;location;lat;lon;timestamp;P1;durP1;ratioP1;P2;durP2;ratioP2
37645;SDS011;23489;49.600;6.138;2023-06-04T00:02:16;2.63;;;1.80;;
37645;SDS011;23489;49.600;6.138;2023-06-04T00:04:41;3.67;;;1.90;;
37645;SDS011;23489;49.600;6.138;2023-06-04T00:07:07;4.88;;;1.98;;
37645;SDS011;23489;49.600;6.138;2023-06-04T00:09:32;2.30;;;1.80;;
37645;SDS011;23489;49.600;6.138;2023-06-04T00:11:58;3.97;;;1.75;;
37645;SDS011;23489;49.600;6.138;2023-06-04T00:14:24;2.67;;;1.70;;
37645;SDS011;23489;49.600;6.138;2023-06-04T00:16:50;2.35;;;1.80;;
37645;SDS011;23489;49.600;6.138;2023-06-04T00:19:16;3.55;;;2.30;;
37645;SDS011;23489;49.600;6.138;2023-06-04T00:21:41;2.38;;;1.65;;
37645;SDS011;23489;49.600;6.138;2023-06-04T00:24:07;3.28;;;1.80;;
37645;SDS011;23489;49.600;6.138;2023-06-04T00:26:33;7.00;;;2.50;;
37645;SDS011;23489;49.600;6.138;2023-06-04T00:28:58;4.30;;;2.15;;
37645;SDS011;23489;49.600;6.138;2023-06-04T00:31:24;3.13;;;1.90;;
37645;SDS011;23489;49.600;6.138;2023-06-04T00:33:50;3.50;;;2.20;;
37645;SDS011;23489;49.600;6.138;2023-06-04T00:36:15;3.38;;;2.20;;
37645;SDS011;23489;49.600;6.138;2023-06-04T00:38:41;4.63;;;2.55;;
37645;SDS011;23489;49.600;6.138;2023-06-04T00:41:07;6.40;;;2.67;;
37645;SDS011;23489;49.600;6.138;2023-06-04T00:43:32;2.80;;;2.40;;
37645;SDS011;23489;49.600;6.138;2023-06-04T00:45:58;3.13;;;2.15;;
37645;SDS011;23489;49.600;6.138;2023-06-04T00:48:25;5.57;;;2.08;;
37645;SDS011;23489;49.600;6.138;2023-06-04T00:50:53;4.82;;;2.60;;
37645;SDS011;23489;49.600;6.138;2023-06-04T00:53:20;2.80;;;2.42;;
37645;SDS011;23489;49.600;6.138;2023-06-04T00:55:47;2.95;;;1.95;;
37645;SDS011;23489;49.600;6.138;2023-06-04T00:58:13;4.00;;;1.98;;
37645;SDS011;23489;49.600;6.138;2023-06-04T01:00:40;2.22;;;1.55;;
37645;SDS011;23489;49.600;6.138;2023-06-04T01:03:10;2.38;;;1.90;;
37645;SDS011;23489;49.600;6.138;2023-06-04T01:05:51;4.68;;;1.67;;
37645;SDS011;23489;49.600;6.138;2023-06-04T01:08:25;3.17;;;1.80;;
37645;SDS011;23489;49.600;6.138;2023-06-04T01:10:55;9.10;;;1.88;;
37645;SDS011;23489;49.600;6.138;2023-06-04T01:15:47;2.40;;;1.90;;
37645;SDS011;23489;49.600;6.138;2023-06-04T01:18:13;4.00;;;1.80;;
37645;SDS011;23489;49.600;6.138;2023-06-04T01:20:52;3.47;;;1.77;;
37645;SDS011;23489;49.600;6.138;2023-06-04T01:26:14;5.10;;;2.17;;
37645;SDS011;23489;49.600;6.138;2023-06-04T01:28:40;4.45;;;1.98;;
37645;SDS011;23489;49.600;6.138;2023-06-04T01:31:08;2.25;;;2.05;;
37645;SDS011;23489;49.600;6.138;2023-06-04T01:33:34;4.97;;;2.30;;
37645;SDS011;23489;49.600;6.138;2023-06-04T01:36:00;3.17;;;1.70;;
37645;SDS011;23489;49.600;6.138;2023-06-04T01:38:27;4.00;;;1.90;;
37645;SDS011;23489;49.600;6.138;2023-06-04T01:40:53;4.53;;;1.80;;
37645;SDS011;23489;49.600;6.138;2023-06-04T01:43:26;1.88;;;1.50;;
37645;SDS011;23489;49.600;6.138;2023-06-04T01:45:52;2.55;;;1.70;;
37645;SDS011;23489;49.600;6.138;2023-06-04T01:48:19;3.28;;;1.75;;
37645;SDS011;23489;49.600;6.138;2023-06-04T01:50:45;1.98;;;1.35;;
37645;SDS011;23489;49.600;6.138;2023-06-04T01:53:10;4.15;;;1.98;;
37645;SDS011;23489;49.600;6.138;2023-06-04T01:55:36;2.35;;;1.48;;
37645;SDS011;23489;49.600;6.138;2023-06-04T01:58:02;4.55;;;1.90;;
37645;SDS011;23489;49.600;6.138;2023-06-04T02:00:28;3.03;;;1.60;;
37645;SDS011;23489;49.600;6.138;2023-06-04T02:02:54;2.10;;;1.80;;
37645;SDS011;23489;49.600;6.138;2023-06-04T02:05:21;4.13;;;1.80;;
37645;SDS011;23489;49.600;6.138;2023-06-04T02:07:46;3.60;;;1.50;;
37645;SDS011;23489;49.600;6.138;2023-06-04T02:10:13;2.15;;;1.50;;
37645;SDS011;23489;49.600;6.138;2023-06-04T02:12:41;3.28;;;1.70;;
37645;SDS011;23489;49.600;6.138;2023-06-04T02:15:24;5.32;;;2.13;;
37645;SDS011;23489;49.600;6.138;2023-06-04T02:17:54;3.30;;;1.52;;
37645;SDS011;23489;49.600;6.138;2023-06-04T02:20:26;4.25;;;1.42;;
37645;SDS011;23489;49.600;6.138;2023-06-04T02:22:53;2.75;;;1.70;;
37645;SDS011;23489;49.600;6.138;2023-06-04T02:25:21;3.72;;;1.67;;
37645;SDS011;23489;49.600;6.138;2023-06-04T02:27:47;2.00;;;1.48;;
37645;SDS011;23489;49.600;6.138;2023-06-04T02:30:13;2.40;;;1.70;;
37645;SDS011;23489;49.600;6.138;2023-06-04T02:32:40;2.50;;;1.70;;
37645;SDS011;23489;49.600;6.138;2023-06-04T02:35:06;3.47;;;2.10;;
37645;SDS011;23489;49.600;6.138;2023-06-04T02:37:32;2.65;;;1.75;;
37645;SDS011;23489;49.600;6.138;2023-06-04T02:39:57;6.30;;;1.65;;
37645;SDS011;23489;49.600;6.138;2023-06-04T02:42:23;2.92;;;1.40;;
37645;SDS011;23489;49.600;6.138;2023-06-04T02:44:49;2.22;;;1.48;;
37645;SDS011;23489;49.600;6.138;2023-06-04T02:47:14;5.78;;;1.90;;
37645;SDS011;23489;49.600;6.138;2023-06-04T02:49:40;2.92;;;1.58;;
37645;SDS011;23489;49.600;6.138;2023-06-04T02:52:06;6.45;;;1.80;;
37645;SDS011;23489;49.600;6.138;2023-06-04T02:54:31;4.72;;;2.08;;
37645;SDS011;23489;49.600;6.138;2023-06-04T02:56:57;2.53;;;1.45;;
37645;SDS011;23489;49.600;6.138;2023-06-04T02:59:22;2.78;;;1.60;;
37645;SDS011;23489;49.600;6.138;2023-06-04T03:01:49;2.28;;;1.73;;
37645;SDS011;23489;49.600;6.138;2023-06-04T03:04:15;1.83;;;1.67;;
37645;SDS011;23489;49.600;6.138;2023-06-04T03:06:40;3.28;;;1.65;;
37645;SDS011;23489;49.600;6.138;2023-06-04T03:09:10;2.17;;;1.52;;
37645;SDS011;23489;49.600;6.138;2023-06-04T03:11:36;1.90;;;1.60;;
37645;SDS011;23489;49.600;6.138;2023-06-04T03:14:02;2.72;;;1.58;;
37645;SDS011;23489;49.600;6.138;2023-06-04T03:16:27;1.80;;;1.58;;
37645;SDS011;23489;49.600;6.138;2023-06-04T03:18:53;4.32;;;1.70;;
37645;SDS011;23489;49.600;6.138;2023-06-04T03:21:18;1.67;;;1.35;;
37645;SDS011;23489;49.600;6.138;2023-06-04T03:23:44;2.28;;;1.60;;
37645;SDS011;23489;49.600;6.138;2023-06-04T03:26:10;2.53;;;1.90;;
37645;SDS011;23489;49.600;6.138;2023-06-04T03:28:39;2.45;;;1.50;;
37645;SDS011;23489;49.600;6.138;2023-06-04T03:31:05;2.22;;;1.60;;
37645;SDS011;23489;49.600;6.138;2023-06-04T03:33:31;3.22;;;1.55;;
37645;SDS011;23489;49.600;6.138;2023-06-04T03:35:56;3.65;;;1.90;;
37645;SDS011;23489;49.600;6.138;2023-06-04T03:38:24;2.05;;;1.60;;
37645;SDS011;23489;49.600;6.138;2023-06-04T03:40:53;1.67;;;1.50;;
37645;SDS011;23489;49.600;6.138;2023-06-04T03:43:19;3.38;;;1.77;;
37645;SDS011;23489;49.600;6.138;2023-06-04T03:45:46;4.28;;;1.73;;
37645;SDS011;23489;49.600;6.138;2023-06-04T03:48:12;2.63;;;1.63;;
37645;SDS011;23489;49.600;6.138;2023-06-04T03:50:38;6.25;;;1.70;;
37645;SDS011;23489;49.600;6.138;2023-06-04T03:53:04;3.45;;;1.55;;
37645;SDS011;23489;49.600;6.138;2023-06-04T03:55:31;3.35;;;1.88;;
37645;SDS011;23489;49.600;6.138;2023-06-04T03:57:58;2.80;;;1.30;;
37645;SDS011;23489;49.600;6.138;2023-06-04T04:00:24;1.80;;;1.42;;
37645;SDS011;23489;49.600;6.138;2023-06-04T04:02:53;3.17;;;1.92;;
37645;SDS011;23489;49.600;6.138;2023-06-04T04:05:25;2.53;;;1.63;;
37645;SDS011;23489;49.600;6.138;2023-06-04T04:07:52;4.70;;;1.80;;
37645;SDS011;23489;49.600;6.138;2023-06-04T04:10:22;2.20;;;1.50;;
37645;SDS011;23489;49.600;6.138;2023-06-04T04:12:48;4.20;;;1.88;;
37645;SDS011;23489;49.600;6.138;2023-06-04T04:15:15;5.80;;;1.70;;
37645;SDS011;23489;49.600;6.138;2023-06-04T04:17:42;2.47;;;1.67;;
37645;SDS011;23489;49.600;6.138;2023-06-04T04:20:09;4.75;;;1.58;;
37645;SDS011;23489;49.600;6.138;2023-06-04T04:22:41;3.38;;;1.80;;
37645;SDS011;23489;49.600;6.138;2023-06-04T04:25:08;4.13;;;1.60;;
37645;SDS011;23489;49.600;6.138;2023-06-04T04:27:35;4.32;;;1.70;;
37645;SDS011;23489;49.600;6.138;2023-06-04T04:30:06;2.78;;;1.80;;
37645;SDS011;23489;49.600;6.138;2023-06-04T04:32:32;2.35;;;1.73;;
37645;SDS011;23489;49.600;6.138;2023-06-04T04:34:58;2.20;;;1.70;;
37645;SDS011;23489;49.600;6.138;2023-06-04T04:37:31;3.97;;;1.65;;
37645;SDS011;23489;49.600;6.138;2023-06-04T04:39:57;4.35;;;1.50;;
37645;SDS011;23489;49.600;6.138;2023-06-04T04:42:26;2.85;;;1.52;;
37645;SDS011;23489;49.600;6.138;2023-06-04T04:44:51;2.13;;;1.40;;
37645;SDS011;23489;49.600;6.138;2023-06-04T04:47:20;2.05;;;1.60;;
37645;SDS011;23489;49.600;6.138;2023-06-04T04:49:46;3.03;;;1.60;;
37645;SDS011;23489;49.600;6.138;2023-06-04T04:52:11;1.75;;;1.55;;
37645;SDS011;23489;49.600;6.138;2023-06-04T04:54:40;2.60;;;1.55;;
37645;SDS011;23489;49.600;6.138;2023-06-04T04:57:06;3.72;;;1.85;;
37645;SDS011;23489;49.600;6.138;2023-06-04T04:59:33;1.95;;;1.38;;
37645;SDS011;23489;49.600;6.138;2023-06-04T05:01:59;2.67;;;1.58;;
37645;SDS011;23489;49.600;6.138;2023-06-04T05:04:24;4.07;;;1.70;;
37645;SDS011;23489;49.600;6.138;2023-06-04T05:06:50;1.67;;;1.48;;
37645;SDS011;23489;49.600;6.138;2023-06-04T05:09:16;2.33;;;1.60;;
37645;SDS011;23489;49.600;6.138;2023-06-04T05:11:42;5.63;;;1.65;;
37645;SDS011;23489;49.600;6.138;2023-06-04T05:14:08;2.70;;;1.60;;
37645;SDS011;23489;49.600;6.138;2023-06-04T05:16:34;2.22;;;1.70;;
37645;SDS011;23489;49.600;6.138;2023-06-04T05:19:01;4.65;;;1.80;;
37645;SDS011;23489;49.600;6.138;2023-06-04T05:21:31;1.88;;;1.60;;
37645;SDS011;23489;49.600;6.138;2023-06-04T05:24:02;1.90;;;1.50;;
37645;SDS011;23489;49.600;6.138;2023-06-04T05:26:32;3.92;;;1.80;;
37645;SDS011;23489;49.600;6.138;2023-06-04T05:29:01;3.60;;;1.63;;
37645;SDS011;23489;49.600;6.138;2023-06-04T05:31:32;1.95;;;1.50;;
37645;SDS011;23489;49.600;6.138;2023-06-04T05:33:59;3.33;;;1.52;;
37645;SDS011;23489;49.600;6.138;2023-06-04T05:36:28;4.47;;;1.42;;
37645;SDS011;23489;49.600;6.138;2023-06-04T05:38:57;7.60;;;1.58;;
37645;SDS011;23489;49.600;6.138;2023-06-04T05:41:30;2.53;;;1.63;;
37645;SDS011;23489;49.600;6.138;2023-06-04T05:43:57;3.88;;;1.45;;
37645;SDS011;23489;49.600;6.138;2023-06-04T05:46:22;2.10;;;1.48;;
37645;SDS011;23489;49.600;6.138;2023-06-04T05:48:48;4.85;;;1.60;;
37645;SDS011;23489;49.600;6.138;2023-06-04T05:51:14;1.77;;;1.45;;
37645;SDS011;23489;49.600;6.138;2023-06-04T05:53:40;4.90;;;1.65;;
37645;SDS011;23489;49.600;6.138;2023-06-04T05:56:07;3.67;;;1.80;;
37645;SDS011;23489;49.600;6.138;2023-06-04T05:58:33;2.55;;;1.48;;
37645;SDS011;23489;49.600;6.138;2023-06-04T06:01:03;2.05;;;1.70;;
37645;SDS011;23489;49.600;6.138;2023-06-04T06:03:29;2.00;;;1.42;;
37645;SDS011;23489;49.600;6.138;2023-06-04T06:08:22;2.58;;;1.55;;
37645;SDS011;23489;49.600;6.138;2023-06-04T06:10:48;3.47;;;1.52;;
37645;SDS011;23489;49.600;6.138;2023-06-04T06:13:13;1.75;;;1.40;;
37645;SDS011;23489;49.600;6.138;2023-06-04T06:15:40;2.75;;;1.45;;
37645;SDS011;23489;49.600;6.138;2023-06-04T06:18:05;1.92;;;1.40;;
37645;SDS011;23489;49.600;6.138;2023-06-04T06:20:31;2.97;;;1.50;;
37645;SDS011;23489;49.600;6.138;2023-06-04T06:22:57;4.10;;;1.55;;
37645;SDS011;23489;49.600;6.138;2023-06-04T06:28:02;1.90;;;1.42;;
37645;SDS011;23489;49.600;6.138;2023-06-04T06:30:28;2.33;;;1.35;;
37645;SDS011;23489;49.600;6.138;2023-06-04T06:32:54;2.90;;;1.65;;
37645;SDS011;23489;49.600;6.138;2023-06-04T06:35:19;4.20;;;1.58;;
37645;SDS011;23489;49.600;6.138;2023-06-04T06:45:02;2.95;;;1.60;;
37645;SDS011;23489;49.600;6.138;2023-06-04T06:49:54;4.78;;;1.70;;
37645;SDS011;23489;49.600;6.138;2023-06-04T06:54:45;3.90;;;1.63;;
37645;SDS011;23489;49.600;6.138;2023-06-04T06:57:11;4.95;;;1.67;;
37645;SDS011;23489;49.600;6.138;2023-06-04T06:59:37;3.97;;;1.63;;
37645;SDS011;23489;49.600;6.138;2023-06-04T07:02:03;1.88;;;1.63;;
37645;SDS011;23489;49.600;6.138;2023-06-04T07:04:29;2.30;;;1.30;;
37645;SDS011;23489;49.600;6.138;2023-06-04T07:06:55;3.97;;;1.92;;
37645;SDS011;23489;49.600;6.138;2023-06-04T07:09:21;3.65;;;1.52;;
37645;SDS011;23489;49.600;6.138;2023-06-04T07:11:46;2.38;;;1.50;;
37645;SDS011;23489;49.600;6.138;2023-06-04T07:14:12;2.65;;;1.70;;
37645;SDS011;23489;49.600;6.138;2023-06-04T07:16:38;1.58;;;1.35;;
37645;SDS011;23489;49.600;6.138;2023-06-04T07:19:03;2.45;;;1.67;;
37645;SDS011;23489;49.600;6.138;2023-06-04T07:21:29;2.03;;;1.50;;
37645;SDS011;23489;49.600;6.138;2023-06-04T07:23:54;5.85;;;1.85;;
37645;SDS011;23489;49.600;6.138;2023-06-04T07:26:20;1.98;;;1.77;;
37645;SDS011;23489;49.600;6.138;2023-06-04T07:28:46;2.47;;;1.45;;
37645;SDS011;23489;49.600;6.138;2023-06-04T07:31:14;3.17;;;1.85;;
37645;SDS011;23489;49.600;6.138;2023-06-04T07:33:41;3.15;;;1.35;;
37645;SDS011;23489;49.600;6.138;2023-06-04T07:36:15;3.40;;;1.40;;
37645;SDS011;23489;49.600;6.138;2023-06-04T07:38:41;4.65;;;1.55;;
37645;SDS011;23489;49.600;6.138;2023-06-04T07:41:07;2.85;;;1.50;;
37645;SDS011;23489;49.600;6.138;2023-06-04T07:43:34;1.77;;;1.50;;
37645;SDS011;23489;49.600;6.138;2023-06-04T07:46:05;2.70;;;1.65;;
37645;SDS011;23489;49.600;6.138;2023-06-04T07:48:31;3.35;;;1.90;;
37645;SDS011;23489;49.600;6.138;2023-06-04T07:51:00;2.28;;;1.40;;
37645;SDS011;23489;49.600;6.138;2023-06-04T07:53:27;2.35;;;1.48;;
37645;SDS011;23489;49.600;6.138;2023-06-04T07:55:53;3.63;;;1.90;;
37645;SDS011;23489;49.600;6.138;2023-06-04T07:58:19;1.65;;;1.40;;
37645;SDS011;23489;49.600;6.138;2023-06-04T08:00:45;1.83;;;1.40;;
37645;SDS011;23489;49.600;6.138;2023-06-04T08:03:11;1.55;;;1.45;;
37645;SDS011;23489;49.600;6.138;2023-06-04T08:05:36;4.30;;;1.60;;
37645;SDS011;23489;49.600;6.138;2023-06-04T08:08:02;2.30;;;1.42;;
37645;SDS011;23489;49.600;6.138;2023-06-04T08:10:29;2.78;;;1.95;;
37645;SDS011;23489;49.600;6.138;2023-06-04T08:12:55;4.50;;;1.70;;
37645;SDS011;23489;49.600;6.138;2023-06-04T08:15:21;5.22;;;1.55;;
37645;SDS011;23489;49.600;6.138;2023-06-04T08:17:47;2.95;;;1.58;;
37645;SDS011;23489;49.600;6.138;2023-06-04T08:20:12;2.50;;;1.30;;
37645;SDS011;23489;49.600;6.138;2023-06-04T08:22:38;2.67;;;1.60;;
37645;SDS011;23489;49.600;6.138;2023-06-04T08:25:04;2.08;;;1.70;;
37645;SDS011;23489;49.600;6.138;2023-06-04T08:27:30;3.40;;;1.58;;
37645;SDS011;23489;49.600;6.138;2023-06-04T08:29:56;3.88;;;1.65;;
37645;SDS011;23489;49.600;6.138;2023-06-04T08:32:22;3.92;;;1.73;;
37645;SDS011;23489;49.600;6.138;2023-06-04T08:34:49;2.63;;;1.48;;
37645;SDS011;23489;49.600;6.138;2023-06-04T08:37:15;2.15;;;1.42;;
37645;SDS011;23489;49.600;6.138;2023-06-04T08:39:43;1.75;;;1.38;;
37645;SDS011;23489;49.600;6.138;2023-06-04T08:42:51;2.30;;;1.65;;
37645;SDS011;23489;49.600;6.138;2023-06-04T08:45:02;3.75;;;1.50;;
37645;SDS011;23489;49.600;6.138;2023-06-04T08:47:28;2.67;;;1.63;;
37645;SDS011;23489;49.600;6.138;2023-06-04T08:49:59;3.10;;;1.60;;
37645;SDS011;23489;49.600;6.138;2023-06-04T08:52:25;3.45;;;1.55;;
37645;SDS011;23489;49.600;6.138;2023-06-04T08:54:52;4.13;;;1.50;;
37645;SDS011;23489;49.600;6.138;2023-06-04T08:57:19;3.65;;;1.67;;
37645;SDS011;23489;49.600;6.138;2023-06-04T08:59:45;2.53;;;1.83;;
37645;SDS011;23489;49.600;6.138;2023-06-04T09:02:15;4.07;;;1.65;;
37645;SDS011;23489;49.600;6.138;2023-06-04T09:04:41;2.33;;;1.75;;
37645;SDS011;23489;49.600;6.138;2023-06-04T09:07:08;2.45;;;1.90;;
37645;SDS011;23489;49.600;6.138;2023-06-04T09:09:38;5.20;;;1.73;;
37645;SDS011;23489;49.600;6.138;2023-06-04T09:12:05;3.30;;;1.85;;
37645;SDS011;23489;49.600;6.138;2023-06-04T09:14:35;5.10;;;1.60;;
37645;SDS011;23489;49.600;6.138;2023-06-04T09:17:00;2.00;;;1.50;;
37645;SDS011;23489;49.600;6.138;2023-06-04T09:19:26;3.97;;;1.70;;
37645;SDS011;23489;49.600;6.138;2023-06-04T09:24:19;2.63;;;1.50;;
37645;SDS011;23489;49.600;6.138;2023-06-04T09:26:45;2.38;;;1.70;;
37645;SDS011;23489;49.600;6.138;2023-06-04T09:29:11;2.67;;;1.60;;
37645;SDS011;23489;49.600;6.138;2023-06-04T09:31:37;3.28;;;1.40;;
37645;SDS011;23489;49.600;6.138;2023-06-04T09:34:03;3.15;;;1.67;;
37645;SDS011;23489;49.600;6.138;2023-06-04T09:36:32;2.70;;;1.92;;
37645;SDS011;23489;49.600;6.138;2023-06-04T09:39:00;4.97;;;1.77;;
37645;SDS011;23489;49.600;6.138;2023-06-04T09:41:28;3.17;;;1.80;;
37645;SDS011;23489;49.600;6.138;2023-06-04T09:44:00;2.20;;;1.80;;
37645;SDS011;23489;49.600;6.138;2023-06-04T09:46:30;4.93;;;1.80;;
37645;SDS011;23489;49.600;6.138;2023-06-04T09:49:00;3.25;;;1.70;;
37645;SDS011;23489;49.600;6.138;2023-06-04T09:51:28;3.40;;;1.85;;
37645;SDS011;23489;49.600;6.138;2023-06-04T09:53:54;4.82;;;2.15;;
37645;SDS011;23489;49.600;6.138;2023-06-04T09:56:21;4.50;;;1.52;;
37645;SDS011;23489;49.600;6.138;2023-06-04T09:58:50;4.18;;;1.80;;
37645;SDS011;23489;49.600;6.138;2023-06-04T10:01:21;4.30;;;1.77;;
37645;SDS011;23489;49.600;6.138;2023-06-04T10:03:49;2.70;;;1.67;;
37645;SDS011;23489;49.600;6.138;2023-06-04T10:06:16;4.68;;;3.28;;
37645;SDS011;23489;49.600;6.138;2023-06-04T10:08:45;4.88;;;2.88;;
37645;SDS011;23489;49.600;6.138;2023-06-04T10:11:11;3.97;;;1.65;;
37645;SDS011;23489;49.600;6.138;2023-06-04T10:13:44;3.47;;;1.70;;
37645;SDS011;23489;49.600;6.138;2023-06-04T10:16:18;2.65;;;1.88;;
37645;SDS011;23489;49.600;6.138;2023-06-04T10:18:45;4.90;;;1.83;;
37645;SDS011;23489;49.600;6.138;2023-06-04T10:21:13;2.80;;;1.77;;
37645;SDS011;23489;49.600;6.138;2023-06-04T10:23:39;3.70;;;1.50;;
37645;SDS011;23489;49.600;6.138;2023-06-04T10:26:09;2.00;;;1.55;;
37645;SDS011;23489;49.600;6.138;2023-06-04T10:28:40;3.90;;;2.00;;
37645;SDS011;23489;49.600;6.138;2023-06-04T10:31:06;2.20;;;1.80;;
37645;SDS011;23489;49.600;6.138;2023-06-04T10:33:33;1.90;;;1.60;;
37645;SDS011;23489;49.600;6.138;2023-06-04T10:35:59;2.55;;;1.83;;
37645;SDS011;23489;49.600;6.138;2023-06-04T10:38:48;1.60;;;1.50;;
37645;SDS011;23489;49.600;6.138;2023-06-04T10:41:20;4.43;;;1.70;;
37645;SDS011;23489;49.600;6.138;2023-06-04T10:43:51;4.35;;;2.33;;
37645;SDS011;23489;49.600;6.138;2023-06-04T10:46:25;2.30;;;1.95;;
37645;SDS011;23489;49.600;6.138;2023-06-04T10:48:51;5.25;;;2.08;;
37645;SDS011;23489;49.600;6.138;2023-06-04T10:51:33;2.15;;;1.95;;
37645;SDS011;23489;49.600;6.138;2023-06-04T10:54:01;3.75;;;1.95;;
37645;SDS011;23489;49.600;6.138;2023-06-04T10:56:31;3.25;;;2.05;;
37645;SDS011;23489;49.600;6.138;2023-06-04T10:59:00;4.72;;;1.92;;
37645;SDS011;23489;49.600;6.138;2023-06-04T11:01:37;2.30;;;2.10;;
37645;SDS011;23489;49.600;6.138;2023-06-04T11:04:03;4.63;;;3.13;;
37645;SDS011;23489;49.600;6.138;2023-06-04T11:06:28;3.20;;;1.90;;
37645;SDS011;23489;49.600;6.138;2023-06-04T11:09:02;3.83;;;1.95;;
37645;SDS011;23489;49.600;6.138;2023-06-04T20:35:33;2.72;;;2.28;;
37645;SDS011;23489;49.600;6.138;2023-06-04T20:37:58;4.50;;;2.50;;
37645;SDS011;23489;49.600;6.138;2023-06-04T20:40:26;3.15;;;2.50;;
37645;SDS011;23489;49.600;6.138;2023-06-04T20:42:52;5.90;;;2.40;;
37645;SDS011;23489;49.600;6.138;2023-06-04T20:45:17;3.08;;;2.30;;
37645;SDS011;23489;49.600;6.138;2023-06-04T20:47:43;4.60;;;2.65;;
37645;SDS011;23489;49.600;6.138;2023-06-04T20:50:09;2.70;;;2.50;;
37645;SDS011;23489;49.600;6.138;2023-06-04T20:52:35;3.28;;;2.63;;
37645;SDS011;23489;49.600;6.138;2023-06-04T20:55:01;5.43;;;2.70;;
37645;SDS011;23489;49.600;6.138;2023-06-04T20:57:27;3.28;;;2.10;;
37645;SDS011;23489;49.600;6.138;2023-06-04T20:59:52;5.25;;;2.60;;
37645;SDS011;23489;49.600;6.138;2023-06-04T21:02:18;2.55;;;2.28;;
37645;SDS011;23489;49.600;6.138;2023-06-04T21:04:44;2.90;;;2.60;;
37645;SDS011;23489;49.600;6.138;2023-06-04T21:07:09;2.67;;;2.47;;
37645;SDS011;23489;49.600;6.138;2023-06-04T21:09:38;3.75;;;2.90;;
37645;SDS011;23489;49.600;6.138;2023-06-04T21:12:03;4.15;;;2.42;;
37645;SDS011;23489;49.600;6.138;2023-06-04T21:14:29;3.22;;;2.38;;
37645;SDS011;23489;49.600;6.138;2023-06-04T21:16:55;4.65;;;2.35;;
37645;SDS011;23489;49.600;6.138;2023-06-04T21:19:21;4.00;;;2.75;;
37645;SDS011;23489;49.600;6.138;2023-06-04T21:21:46;3.15;;;2.55;;
37645;SDS011;23489;49.600;6.138;2023-06-04T21:24:12;3.05;;;2.58;;
37645;SDS011;23489;49.600;6.138;2023-06-04T21:26:39;2.85;;;2.50;;
37645;SDS011;23489;49.600;6.138;2023-06-04T21:29:04;3.55;;;2.83;;
37645;SDS011;23489;49.600;6.138;2023-06-04T21:31:30;4.63;;;2.55;;
37645;SDS011;23489;49.600;6.138;2023-06-04T21:33:56;3.17;;;2.47;;
37645;SDS011;23489;49.600;6.138;2023-06-04T21:36:21;4.15;;;3.00;;
37645;SDS011;23489;49.600;6.138;2023-06-04T21:38:47;3.35;;;2.50;;
37645;SDS011;23489;49.600;6.138;2023-06-04T21:41:13;3.55;;;2.45;;
37645;SDS011;23489;49.600;6.138;2023-06-04T21:43:38;5.10;;;2.88;;
37645;SDS011;23489;49.600;6.138;2023-06-04T21:46:04;4.43;;;2.80;;
37645;SDS011;23489;49.600;6.138;2023-06-04T21:48:29;5.63;;;2.55;;
37645;SDS011;23489;49.600;6.138;2023-06-04T21:50:55;3.10;;;2.60;;
37645;SDS011;23489;49.600;6.138;2023-06-04T21:53:21;3.42;;;2.75;;
37645;SDS011;23489;49.600;6.138;2023-06-04T21:55:46;3.22;;;2.88;;
37645;SDS011;23489;49.600;6.138;2023-06-04T21:58:12;4.30;;;2.50;;
37645;SDS011;23489;49.600;6.138;2023-06-04T22:00:37;3.08;;;2.50;;
37645;SDS011;23489;49.600;6.138;2023-06-04T22:03:03;4.45;;;2.90;;
37645;SDS011;23489;49.600;6.138;2023-06-04T22:05:29;3.80;;;3.00;;
37645;SDS011;23489;49.600;6.138;2023-06-04T22:07:54;3.28;;;2.78;;
37645;SDS011;23489;49.600;6.138;2023-06-04T22:10:20;3.90;;;2.80;;
37645;SDS011;23489;49.600;6.138;2023-06-04T22:12:45;4.68;;;2.72;;
37645;SDS011;23489;49.600;6.138;2023-06-04T22:15:11;5.88;;;2.40;;
37645;SDS011;23489;49.600;6.138;2023-06-04T22:17:37;3.28;;;2.83;;
37645;SDS011;23489;49.600;6.138;2023-06-04T22:20:02;5.03;;;2.90;;
37645;SDS011;23489;49.600;6.138;2023-06-04T22:22:28;3.28;;;2.75;;
37645;SDS011;23489;49.600;6.138;2023-06-04T22:24:54;3.35;;;2.80;;
37645;SDS011;23489;49.600;6.138;2023-06-04T22:27:20;3.13;;;2.55;;
37645;SDS011;23489;49.600;6.138;2023-06-04T22:29:46;3.90;;;2.92;;
37645;SDS011;23489;49.600;6.138;2023-06-04T22:32:12;3.95;;;3.10;;
37645;SDS011;23489;49.600;6.138;2023-06-04T22:34:37;6.47;;;3.00;;
37645;SDS011;23489;49.600;6.138;2023-06-04T22:37:03;3.42;;;3.00;;
37645;SDS011;23489;49.600;6.138;2023-06-04T22:39:29;4.40;;;2.85;;
37645;SDS011;23489;49.600;6.138;2023-06-04T22:41:54;4.10;;;2.80;;
37645;SDS011;23489;49.600;6.138;2023-06-04T22:44:20;4.85;;;2.80;;
37645;SDS011;23489;49.600;6.138;2023-06-04T22:46:45;3.83;;;2.88;;
37645;SDS011;23489;49.600;6.138;2023-06-04T22:49:11;3.60;;;2.92;;
37645;SDS011;23489;49.600;6.138;2023-06-04T22:51:37;4.18;;;3.05;;
37645;SDS011;23489;49.600;6.138;2023-06-04T22:54:02;4.90;;;2.85;;
37645;SDS011;23489;49.600;6.138;2023-06-04T22:56:28;6.30;;;3.08;;
37645;SDS011;23489;49.600;6.138;2023-06-04T22:58:53;4.90;;;3.13;;
37645;SDS011;23489;49.600;6.138;2023-06-04T23:01:20;3.25;;;2.72;;
37645;SDS011;23489;49.600;6.138;2023-06-04T23:03:45;3.80;;;3.00;;
37645;SDS011;23489;49.600;6.138;2023-06-04T23:06:11;3.17;;;2.50;;
37645;SDS011;23489;49.600;6.138;2023-06-04T23:08:37;3.47;;;2.70;;
37645;SDS011;23489;49.600;6.138;2023-06-04T23:11:02;3.78;;;2.80;;
37645;SDS011;23489;49.600;6.138;2023-06-04T23:13:28;6.50;;;3.10;;
37645;SDS011;23489;49.600;6.138;2023-06-04T23:15:54;3.30;;;2.67;;
37645;SDS011;23489;49.600;6.138;2023-06-04T23:18:22;5.95;;;2.83;;
37645;SDS011;23489;49.600;6.138;2023-06-04T23:20:48;7.38;;;3.00;;
37645;SDS011;23489;49.600;6.138;2023-06-04T23:23:13;3.40;;;2.90;;
37645;SDS011;23489;49.600;6.138;2023-06-04T23:25:39;3.03;;;2.72;;
37645;SDS011;23489;49.600;6.138;2023-06-04T23:28:05;3.75;;;3.00;;
37645;SDS011;23489;49.600;6.138;2023-06-04T23:30:30;3.38;;;2.50;;
37645;SDS011;23489;49.600;6.138;2023-06-04T23:32:56;5.05;;;3.10;;
37645;SDS011;23489;49.600;6.138;2023-06-04T23:35:23;3.63;;;2.60;;
37645;SDS011;23489;49.600;6.138;2023-06-04T23:37:49;5.25;;;2.97;;
37645;SDS011;23489;49.600;6.138;2023-06-04T23:40:15;3.60;;;2.38;;
37645;SDS011;23489;49.600;6.138;2023-06-04T23:42:41;2.83;;;2.40;;
37645;SDS011;23489;49.600;6.138;2023-06-04T23:45:07;3.42;;;2.95;;
37645;SDS011;23489;49.600;6.138;2023-06-04T23:47:33;4.47;;;2.80;;
37645;SDS011;23489;49.600;6.138;2023-06-04T23:49:58;3.95;;;2.70;;
37645;SDS011;23489;49.600;6.138;2023-06-04T23:52:24;4.00;;;2.70;;
37645;SDS011;23489;49.600;6.138;2023-06-04T23:54:50;3.13;;;2.58;;
37645;SDS011;23489;49.600;6.138;2023-06-04T23:57:15;4.22;;;2.83;;
37645;SDS011;23489;49.600;6.138;2023-06-04T23:59:41;3.10;;;2.80;;
